Terminal Aerodrome Forecast
Issued by NWS Wilmington, NC

Home | Current Version | Previous Version | Text Only | Print | Product List | Glossary On
Versions: 1 2 3 4 5 6 7 8 9 10 11 12 13 14 15 16 17 18 19
683
FTUS42 KILM 282024 AAA
TAFMYR
TAF AMD
KMYR 282024Z 2820/2918 19016G22KT P6SM SCT007 SCT015 BKN035
      TEMPO 2820/2822 BKN009
     FM290000 18010KT P6SM SCT005 BKN015
     FM291600 18014KT P6SM SCT015 BKN030=

USA.gov is the U.S. government's official web portal to all federal, state and local government web resources and services.